sensor_id;sensor_type;location;lat;lon;timestamp;pressure;altitude;pressure_sealevel;temperature;humidity
61682;BME280;47577;43.610;25.010;2023-08-07T00:00:22;99567.53;;;19.15;78.72
61682;BME280;47577;43.610;25.010;2023-08-07T00:02:48;99570.56;;;19.22;79.62
61682;BME280;47577;43.610;25.010;2023-08-07T00:05:15;99568.13;;;19.19;80.07
61682;BME280;47577;43.610;25.010;2023-08-07T00:07:42;99568.03;;;19.09;80.18
61682;BME280;47577;43.610;25.010;2023-08-07T00:10:08;99574.03;;;19.02;78.83
61682;BME280;47577;43.610;25.010;2023-08-07T00:12:34;99559.88;;;18.77;81.14
61682;BME280;47577;43.610;25.010;2023-08-07T00:15:01;99578.84;;;18.87;80.99
61682;BME280;47577;43.610;25.010;2023-08-07T00:17:27;99562.56;;;18.77;80.72
61682;BME280;47577;43.610;25.010;2023-08-07T00:19:53;99566.59;;;18.82;81.78
61682;BME280;47577;43.610;25.010;2023-08-07T00:22:18;99576.38;;;18.95;79.51
61682;BME280;47577;43.610;25.010;2023-08-07T00:24:44;99584.69;;;19.03;80.05
61682;BME280;47577;43.610;25.010;2023-08-07T00:27:09;99584.94;;;19.11;79.11
61682;BME280;47577;43.610;25.010;2023-08-07T00:29:36;99583.34;;;19.09;79.53
61682;BME280;47577;43.610;25.010;2023-08-07T00:32:02;99579.94;;;19.07;79.66
61682;BME280;47577;43.610;25.010;2023-08-07T00:34:28;99588.75;;;19.09;80.42
61682;BME280;47577;43.610;25.010;2023-08-07T00:36:54;99588.16;;;19.05;80.62
61682;BME280;47577;43.610;25.010;2023-08-07T00:39:20;99587.66;;;19.00;78.86
61682;BME280;47577;43.610;25.010;2023-08-07T00:41:46;99585.56;;;18.81;79.42
61682;BME280;47577;43.610;25.010;2023-08-07T00:44:12;99591.69;;;18.83;79.51
61682;BME280;47577;43.610;25.010;2023-08-07T00:46:38;99594.88;;;18.77;80.18
61682;BME280;47577;43.610;25.010;2023-08-07T00:49:08;99584.09;;;18.77;80.09
61682;BME280;47577;43.610;25.010;2023-08-07T00:51:35;99591.34;;;18.76;81.63
61682;BME280;47577;43.610;25.010;2023-08-07T00:54:03;99596.47;;;18.68;80.72
61682;BME280;47577;43.610;25.010;2023-08-07T00:56:31;99593.19;;;18.53;80.53
61682;BME280;47577;43.610;25.010;2023-08-07T00:58:58;99601.38;;;18.40;81.58
61682;BME280;47577;43.610;25.010;2023-08-07T01:01:24;99601.16;;;18.55;80.79
61682;BME280;47577;43.610;25.010;2023-08-07T01:03:50;99600.38;;;18.53;81.24
61682;BME280;47577;43.610;25.010;2023-08-07T01:06:16;99608.34;;;18.43;81.68
61682;BME280;47577;43.610;25.010;2023-08-07T01:08:43;99609.94;;;18.45;81.21
61682;BME280;47577;43.610;25.010;2023-08-07T01:11:20;99613.22;;;18.38;79.86
61682;BME280;47577;43.610;25.010;2023-08-07T01:19:27;99600.13;;;18.33;80.50
61682;BME280;47577;43.610;25.010;2023-08-07T01:22:13;99614.94;;;18.27;78.97
61682;BME280;47577;43.610;25.010;2023-08-07T01:24:44;99608.22;;;18.33;79.12
61682;BME280;47577;43.610;25.010;2023-08-07T01:30:16;99623.59;;;18.20;77.75
61682;BME280;47577;43.610;25.010;2023-08-07T01:35:42;99630.84;;;18.31;77.77
61682;BME280;47577;43.610;25.010;2023-08-07T01:38:08;99647.47;;;18.36;77.67
61682;BME280;47577;43.610;25.010;2023-08-07T01:40:37;99645.75;;;18.35;76.84
61682;BME280;47577;43.610;25.010;2023-08-07T01:43:04;99652.38;;;18.31;77.75
61682;BME280;47577;43.610;25.010;2023-08-07T01:45:30;99658.38;;;18.34;76.58
61682;BME280;47577;43.610;25.010;2023-08-07T01:47:56;99661.38;;;18.18;76.83
61682;BME280;47577;43.610;25.010;2023-08-07T01:50:23;99664.34;;;18.26;77.17
61682;BME280;47577;43.610;25.010;2023-08-07T01:52:49;99660.19;;;18.22;76.50
61682;BME280;47577;43.610;25.010;2023-08-07T01:55:16;99643.81;;;18.25;77.83
61682;BME280;47577;43.610;25.010;2023-08-07T01:57:42;99651.25;;;18.22;77.04
61682;BME280;47577;43.610;25.010;2023-08-07T02:00:08;99644.84;;;18.00;78.03
61682;BME280;47577;43.610;25.010;2023-08-07T02:02:34;99658.56;;;18.08;78.62
61682;BME280;47577;43.610;25.010;2023-08-07T02:05:00;99643.38;;;18.07;77.81
61682;BME280;47577;43.610;25.010;2023-08-07T02:07:26;99637.97;;;17.96;78.74
61682;BME280;47577;43.610;25.010;2023-08-07T02:09:51;99638.75;;;18.09;77.31
61682;BME280;47577;43.610;25.010;2023-08-07T02:12:17;99646.09;;;17.83;78.31
61682;BME280;47577;43.610;25.010;2023-08-07T02:14:42;99647.19;;;18.05;77.48
61682;BME280;47577;43.610;25.010;2023-08-07T02:17:08;99644.47;;;18.05;77.49
61682;BME280;47577;43.610;25.010;2023-08-07T02:19:34;99668.47;;;18.08;77.86
61682;BME280;47577;43.610;25.010;2023-08-07T02:21:59;99658.34;;;18.23;77.02
61682;BME280;47577;43.610;25.010;2023-08-07T02:24:25;99665.03;;;18.17;75.86
61682;BME280;47577;43.610;25.010;2023-08-07T02:26:51;99673.09;;;18.17;75.50
61682;BME280;47577;43.610;25.010;2023-08-07T02:29:16;99665.16;;;18.04;75.82
61682;BME280;47577;43.610;25.010;2023-08-07T02:31:42;99681.03;;;18.07;75.81
61682;BME280;47577;43.610;25.010;2023-08-07T02:34:08;99693.44;;;18.21;77.49
61682;BME280;47577;43.610;25.010;2023-08-07T02:36:33;99697.59;;;18.14;75.58
61682;BME280;47577;43.610;25.010;2023-08-07T02:38:59;99702.59;;;18.19;75.38
61682;BME280;47577;43.610;25.010;2023-08-07T02:41:24;99713.22;;;18.20;76.03
61682;BME280;47577;43.610;25.010;2023-08-07T02:43:50;99714.59;;;18.26;73.62
61682;BME280;47577;43.610;25.010;2023-08-07T02:46:16;99709.19;;;18.15;74.46
61682;BME280;47577;43.610;25.010;2023-08-07T02:48:43;99707.00;;;18.20;74.35
61682;BME280;47577;43.610;25.010;2023-08-07T02:51:09;99715.91;;;18.20;75.20
61682;BME280;47577;43.610;25.010;2023-08-07T02:53:34;99703.78;;;18.03;75.25
61682;BME280;47577;43.610;25.010;2023-08-07T02:56:00;99711.25;;;18.11;74.93
61682;BME280;47577;43.610;25.010;2023-08-07T02:58:26;99708.34;;;18.14;74.65
61682;BME280;47577;43.610;25.010;2023-08-07T03:00:51;99702.88;;;17.92;74.90
61682;BME280;47577;43.610;25.010;2023-08-07T03:03:17;99686.03;;;18.01;75.56
61682;BME280;47577;43.610;25.010;2023-08-07T03:05:49;99694.69;;;17.69;75.50
61682;BME280;47577;43.610;25.010;2023-08-07T03:08:15;99690.66;;;17.99;74.42
61682;BME280;47577;43.610;25.010;2023-08-07T03:10:41;99687.75;;;18.02;74.93
61682;BME280;47577;43.610;25.010;2023-08-07T03:13:07;99701.31;;;18.00;74.52
61682;BME280;47577;43.610;25.010;2023-08-07T03:15:32;99724.44;;;18.03;75.17
61682;BME280;47577;43.610;25.010;2023-08-07T03:17:58;99721.88;;;18.01;74.67
61682;BME280;47577;43.610;25.010;2023-08-07T03:20:23;99729.44;;;18.07;73.87
61682;BME280;47577;43.610;25.010;2023-08-07T03:22:49;99738.56;;;18.18;74.53
61682;BME280;47577;43.610;25.010;2023-08-07T03:25:15;99734.75;;;18.20;74.83
61682;BME280;47577;43.610;25.010;2023-08-07T03:27:41;99758.63;;;18.25;73.31
61682;BME280;47577;43.610;25.010;2023-08-07T03:30:07;99740.38;;;18.17;74.77
61682;BME280;47577;43.610;25.010;2023-08-07T03:32:32;99740.47;;;18.16;73.91
61682;BME280;47577;43.610;25.010;2023-08-07T03:34:58;99737.72;;;18.28;72.51
61682;BME280;47577;43.610;25.010;2023-08-07T03:37:24;99747.13;;;18.23;72.85
61682;BME280;47577;43.610;25.010;2023-08-07T03:39:50;99749.69;;;18.24;72.86
61682;BME280;47577;43.610;25.010;2023-08-07T03:42:16;99756.19;;;18.33;73.60
61682;BME280;47577;43.610;25.010;2023-08-07T03:44:41;99748.25;;;18.32;72.34
61682;BME280;47577;43.610;25.010;2023-08-07T03:47:07;99758.47;;;18.15;72.59
61682;BME280;47577;43.610;25.010;2023-08-07T03:49:32;99751.28;;;18.27;72.92
61682;BME280;47577;43.610;25.010;2023-08-07T03:51:58;99750.72;;;18.35;71.93
61682;BME280;47577;43.610;25.010;2023-08-07T03:54:24;99761.94;;;18.28;71.62
61682;BME280;47577;43.610;25.010;2023-08-07T03:56:50;99754.13;;;18.25;72.37
61682;BME280;47577;43.610;25.010;2023-08-07T03:59:17;99751.91;;;18.19;72.62
61682;BME280;47577;43.610;25.010;2023-08-07T04:01:43;99752.00;;;18.18;72.62
61682;BME280;47577;43.610;25.010;2023-08-07T04:04:08;99735.75;;;18.19;71.83
61682;BME280;47577;43.610;25.010;2023-08-07T04:06:34;99735.38;;;18.13;71.02
61682;BME280;47577;43.610;25.010;2023-08-07T04:09:00;99739.00;;;18.12;72.64
61682;BME280;47577;43.610;25.010;2023-08-07T04:11:26;99740.13;;;18.20;69.68
61682;BME280;47577;43.610;25.010;2023-08-07T04:13:52;99737.44;;;18.20;70.09
61682;BME280;47577;43.610;25.010;2023-08-07T04:16:18;99741.31;;;18.40;71.53
61682;BME280;47577;43.610;25.010;2023-08-07T04:18:43;99737.75;;;18.40;71.06
61682;BME280;47577;43.610;25.010;2023-08-07T04:21:09;99749.50;;;18.39;70.72
61682;BME280;47577;43.610;25.010;2023-08-07T04:23:35;99752.47;;;18.47;69.65
61682;BME280;47577;43.610;25.010;2023-08-07T04:26:00;99755.19;;;18.58;70.41
61682;BME280;47577;43.610;25.010;2023-08-07T04:28:28;99769.63;;;18.69;69.14
61682;BME280;47577;43.610;25.010;2023-08-07T04:30:54;99775.25;;;18.66;70.62
61682;BME280;47577;43.610;25.010;2023-08-07T04:33:20;99780.09;;;18.85;68.58
61682;BME280;47577;43.610;25.010;2023-08-07T04:35:46;99777.31;;;18.86;68.19
61682;BME280;47577;43.610;25.010;2023-08-07T04:38:15;99780.72;;;18.99;68.83
61682;BME280;47577;43.610;25.010;2023-08-07T04:40:49;99774.25;;;19.02;68.43
61682;BME280;47577;43.610;25.010;2023-08-07T04:43:16;99780.13;;;19.07;68.61
61682;BME280;47577;43.610;25.010;2023-08-07T04:45:42;99794.56;;;18.95;69.21
61682;BME280;47577;43.610;25.010;2023-08-07T04:48:10;99772.91;;;18.96;69.53
61682;BME280;47577;43.610;25.010;2023-08-07T04:50:37;99781.22;;;19.05;68.97
61682;BME280;47577;43.610;25.010;2023-08-07T04:53:04;99783.94;;;19.16;67.66
61682;BME280;47577;43.610;25.010;2023-08-07T04:55:30;99780.03;;;19.09;68.25
61682;BME280;47577;43.610;25.010;2023-08-07T04:57:56;99789.28;;;18.93;69.04
61682;BME280;47577;43.610;25.010;2023-08-07T05:00:23;99782.94;;;19.06;68.06
61682;BME280;47577;43.610;25.010;2023-08-07T05:02:48;99791.78;;;19.19;68.03
61682;BME280;47577;43.610;25.010;2023-08-07T05:05:15;99775.84;;;19.16;67.47
61682;BME280;47577;43.610;25.010;2023-08-07T05:07:41;99788.97;;;19.32;67.79
61682;BME280;47577;43.610;25.010;2023-08-07T05:10:07;99796.19;;;19.31;65.10
61682;BME280;47577;43.610;25.010;2023-08-07T05:12:33;99803.44;;;19.42;66.77
61682;BME280;47577;43.610;25.010;2023-08-07T05:14:58;99798.41;;;19.38;66.92
61682;BME280;47577;43.610;25.010;2023-08-07T05:17:24;99809.78;;;19.41;65.39
61682;BME280;47577;43.610;25.010;2023-08-07T05:19:50;99804.75;;;19.59;65.71
61682;BME280;47577;43.610;25.010;2023-08-07T05:22:15;99820.19;;;19.68;65.72
61682;BME280;47577;43.610;25.010;2023-08-07T05:24:41;99823.88;;;19.79;64.25
61682;BME280;47577;43.610;25.010;2023-08-07T05:27:10;99808.66;;;19.66;64.41
61682;BME280;47577;43.610;25.010;2023-08-07T05:29:36;99816.91;;;19.87;63.89
61682;BME280;47577;43.610;25.010;2023-08-07T05:32:11;99816.75;;;19.66;65.11
61682;BME280;47577;43.610;25.010;2023-08-07T05:34:41;99813.09;;;19.79;63.97
61682;BME280;47577;43.610;25.010;2023-08-07T05:37:07;99825.84;;;19.77;62.18
61682;BME280;47577;43.610;25.010;2023-08-07T05:39:34;99814.81;;;19.80;63.90
61682;BME280;47577;43.610;25.010;2023-08-07T05:42:00;99812.81;;;19.93;63.50
61682;BME280;47577;43.610;25.010;2023-08-07T05:44:25;99806.94;;;19.88;64.69
61682;BME280;47577;43.610;25.010;2023-08-07T05:46:51;99813.81;;;19.81;62.92
61682;BME280;47577;43.610;25.010;2023-08-07T05:49:17;99808.94;;;19.86;63.12
61682;BME280;47577;43.610;25.010;2023-08-07T05:51:43;99826.31;;;19.93;63.50
61682;BME280;47577;43.610;25.010;2023-08-07T05:54:08;99832.28;;;20.08;64.20
61682;BME280;47577;43.610;25.010;2023-08-07T05:56:35;99850.09;;;19.99;62.25
61682;BME280;47577;43.610;25.010;2023-08-07T05:59:00;99842.19;;;20.19;61.41
61682;BME280;47577;43.610;25.010;2023-08-07T06:01:26;99851.25;;;20.18;61.88
61682;BME280;47577;43.610;25.010;2023-08-07T06:03:56;99843.44;;;20.47;63.27
61682;BME280;47577;43.610;25.010;2023-08-07T06:06:22;99838.03;;;20.47;61.76
61682;BME280;47577;43.610;25.010;2023-08-07T06:08:48;99851.84;;;20.65;60.63
61682;BME280;47577;43.610;25.010;2023-08-07T06:11:14;99837.13;;;20.58;61.82
61682;BME280;47577;43.610;25.010;2023-08-07T06:13:40;99837.69;;;20.73;61.76
61682;BME280;47577;43.610;25.010;2023-08-07T06:16:06;99843.63;;;20.88;61.78
61682;BME280;47577;43.610;25.010;2023-08-07T06:18:32;99840.72;;;21.00;61.03
61682;BME280;47577;43.610;25.010;2023-08-07T06:20:57;99836.13;;;21.12;59.13
61682;BME280;47577;43.610;25.010;2023-08-07T06:23:23;99839.63;;;21.03;57.91
61682;BME280;47577;43.610;25.010;2023-08-07T06:25:49;99841.59;;;21.22;60.10
61682;BME280;47577;43.610;25.010;2023-08-07T06:28:14;99840.38;;;21.15;58.56
61682;BME280;47577;43.610;25.010;2023-08-07T06:30:40;99840.84;;;21.20;59.64
61682;BME280;47577;43.610;25.010;2023-08-07T06:33:05;99830.09;;;21.09;58.41
61682;BME280;47577;43.610;25.010;2023-08-07T06:35:37;99825.06;;;21.15;58.77
61682;BME280;47577;43.610;25.010;2023-08-07T06:38:03;99833.34;;;21.24;58.84
61682;BME280;47577;43.610;25.010;2023-08-07T06:40:29;99834.78;;;21.07;58.13
61682;BME280;47577;43.610;25.010;2023-08-07T06:42:55;99837.16;;;21.21;57.85
61682;BME280;47577;43.610;25.010;2023-08-07T06:45:20;99827.81;;;21.25;59.55
61682;BME280;47577;43.610;25.010;2023-08-07T06:47:46;99840.94;;;21.40;56.62
61682;BME280;47577;43.610;25.010;2023-08-07T06:50:13;99842.19;;;21.57;58.22
61682;BME280;47577;43.610;25.010;2023-08-07T06:52:38;99844.00;;;21.77;57.38
61682;BME280;47577;43.610;25.010;2023-08-07T06:55:05;99861.38;;;21.84;55.63
61682;BME280;47577;43.610;25.010;2023-08-07T06:57:30;99871.31;;;21.74;57.02
61682;BME280;47577;43.610;25.010;2023-08-07T06:59:56;99837.69;;;21.77;57.10
61682;BME280;47577;43.610;25.010;2023-08-07T07:02:22;99855.44;;;22.00;56.61
61682;BME280;47577;43.610;25.010;2023-08-07T07:04:47;99849.34;;;22.18;56.04
61682;BME280;47577;43.610;25.010;2023-08-07T07:07:13;99865.38;;;22.31;55.72
61682;BME280;47577;43.610;25.010;2023-08-07T07:09:39;99856.03;;;22.23;54.62
61682;BME280;47577;43.610;25.010;2023-08-07T07:12:04;99873.94;;;22.45;55.88
61682;BME280;47577;43.610;25.010;2023-08-07T07:14:32;99873.94;;;22.36;54.17
61682;BME280;47577;43.610;25.010;2023-08-07T07:16:59;99883.06;;;22.64;55.22
61682;BME280;47577;43.610;25.010;2023-08-07T07:19:25;99885.63;;;22.56;54.68
61682;BME280;47577;43.610;25.010;2023-08-07T07:21:51;99885.06;;;22.62;54.01
61682;BME280;47577;43.610;25.010;2023-08-07T07:24:17;99888.88;;;22.40;54.31
61682;BME280;47577;43.610;25.010;2023-08-07T07:26:43;99882.34;;;22.42;53.94
61682;BME280;47577;43.610;25.010;2023-08-07T07:29:08;99884.22;;;22.52;55.10
61682;BME280;47577;43.610;25.010;2023-08-07T07:31:34;99877.28;;;22.28;53.29
61682;BME280;47577;43.610;25.010;2023-08-07T07:34:00;99892.91;;;22.55;54.01
61682;BME280;47577;43.610;25.010;2023-08-07T07:36:25;99890.75;;;22.49;53.79
61682;BME280;47577;43.610;25.010;2023-08-07T07:38:51;99890.63;;;22.60;53.33
61682;BME280;47577;43.610;25.010;2023-08-07T07:41:17;99896.19;;;22.69;53.22
61682;BME280;47577;43.610;25.010;2023-08-07T07:43:43;99908.19;;;22.76;52.07
61682;BME280;47577;43.610;25.010;2023-08-07T07:46:08;99898.88;;;22.88;52.82
61682;BME280;47577;43.610;25.010;2023-08-07T07:48:34;99888.31;;;22.75;53.31
61682;BME280;47577;43.610;25.010;2023-08-07T07:51:03;99884.91;;;22.73;52.11
61682;BME280;47577;43.610;25.010;2023-08-07T07:53:29;99894.63;;;23.15;51.47
61682;BME280;47577;43.610;25.010;2023-08-07T07:55:56;99893.88;;;23.13;51.29
61682;BME280;47577;43.610;25.010;2023-08-07T07:58:22;99898.03;;;23.17;50.61
61682;BME280;47577;43.610;25.010;2023-08-07T08:00:47;99893.84;;;23.32;49.48
61682;BME280;47577;43.610;25.010;2023-08-07T08:03:13;99892.72;;;23.35;51.74
61682;BME280;47577;43.610;25.010;2023-08-07T08:05:39;99878.09;;;23.55;50.00
61682;BME280;47577;43.610;25.010;2023-08-07T08:08:05;99894.53;;;23.54;50.62
61682;BME280;47577;43.610;25.010;2023-08-07T08:10:33;99882.22;;;23.60;49.62
61682;BME280;47577;43.610;25.010;2023-08-07T08:12:59;99884.78;;;23.99;49.91
61682;BME280;47577;43.610;25.010;2023-08-07T08:15:25;99896.16;;;24.12;50.39
61682;BME280;47577;43.610;25.010;2023-08-07T08:17:51;99894.19;;;24.04;48.12
61682;BME280;47577;43.610;25.010;2023-08-07T08:20:17;99901.16;;;24.35;49.15
61682;BME280;47577;43.610;25.010;2023-08-07T08:22:46;99898.09;;;23.82;47.55
61682;BME280;47577;43.610;25.010;2023-08-07T08:25:11;99895.44;;;24.10;47.71
61682;BME280;47577;43.610;25.010;2023-08-07T08:27:38;99898.81;;;24.22;49.18
61682;BME280;47577;43.610;25.010;2023-08-07T08:30:04;99895.94;;;24.23;48.01
61682;BME280;47577;43.610;25.010;2023-08-07T08:32:30;99890.28;;;24.35;48.60
61682;BME280;47577;43.610;25.010;2023-08-07T08:34:56;99911.53;;;23.94;48.29
61682;BME280;47577;43.610;25.010;2023-08-07T08:37:22;99882.53;;;23.94;48.87
61682;BME280;47577;43.610;25.010;2023-08-07T08:39:48;99889.41;;;24.34;49.14
61682;BME280;47577;43.610;25.010;2023-08-07T08:42:14;99900.72;;;24.12;46.98
61682;BME280;47577;43.610;25.010;2023-08-07T08:44:52;99889.41;;;24.16;46.72
61682;BME280;47577;43.610;25.010;2023-08-07T08:47:18;99887.28;;;24.10;48.36
61682;BME280;47577;43.610;25.010;2023-08-07T08:49:46;99889.81;;;24.39;48.03
61682;BME280;47577;43.610;25.010;2023-08-07T08:52:13;99892.09;;;24.16;46.48
61682;BME280;47577;43.610;25.010;2023-08-07T08:54:40;99895.84;;;24.15;45.27
61682;BME280;47577;43.610;25.010;2023-08-07T08:57:06;99888.34;;;24.27;46.21
61682;BME280;47577;43.610;25.010;2023-08-07T08:59:32;99885.03;;;24.51;48.00
61682;BME280;47577;43.610;25.010;2023-08-07T09:01:59;99891.72;;;24.75;46.00
61682;BME280;47577;43.610;25.010;2023-08-07T09:04:25;99886.78;;;24.70;46.93
61682;BME280;47577;43.610;25.010;2023-08-07T09:06:51;99882.84;;;24.91;45.36
61682;BME280;47577;43.610;25.010;2023-08-07T09:09:19;99884.22;;;25.13;46.46
61682;BME280;47577;43.610;25.010;2023-08-07T09:11:47;99889.97;;;25.10;43.67
61682;BME280;47577;43.610;25.010;2023-08-07T09:14:16;99900.66;;;25.03;45.63
61682;BME280;47577;43.610;25.010;2023-08-07T09:16:44;99895.44;;;24.92;46.60
61682;BME280;47577;43.610;25.010;2023-08-07T09:19:11;99895.16;;;25.21;45.78
61682;BME280;47577;43.610;25.010;2023-08-07T09:21:37;99889.34;;;25.34;44.02
61682;BME280;47577;43.610;25.010;2023-08-07T09:24:03;99892.53;;;25.55;44.88
61682;BME280;47577;43.610;25.010;2023-08-07T09:26:28;99897.13;;;25.55;44.05
61682;BME280;47577;43.610;25.010;2023-08-07T09:28:54;99896.22;;;25.72;44.54
61682;BME280;47577;43.610;25.010;2023-08-07T09:31:21;99893.34;;;25.82;43.57
61682;BME280;47577;43.610;25.010;2023-08-07T09:33:47;99894.13;;;25.66;42.74
61682;BME280;47577;43.610;25.010;2023-08-07T09:36:14;99897.06;;;25.47;41.62
61682;BME280;47577;43.610;25.010;2023-08-07T09:38:39;99901.06;;;25.34;42.42
61682;BME280;47577;43.610;25.010;2023-08-07T09:41:05;99887.69;;;25.67;43.75
61682;BME280;47577;43.610;25.010;2023-08-07T09:43:37;99893.28;;;26.00;42.41
61682;BME280;47577;43.610;25.010;2023-08-07T09:46:06;99891.81;;;26.22;40.56
61682;BME280;47577;43.610;25.010;2023-08-07T09:48:31;99906.28;;;26.15;40.82
61682;BME280;47577;43.610;25.010;2023-08-07T09:51:00;99921.75;;;25.80;39.42
61682;BME280;47577;43.610;25.010;2023-08-07T09:53:30;99898.09;;;25.80;41.00
61682;BME280;47577;43.610;25.010;2023-08-07T09:55:57;99907.25;;;26.05;40.23
61682;BME280;47577;43.610;25.010;2023-08-07T09:58:24;99879.56;;;26.18;40.88
61682;BME280;47577;43.610;25.010;2023-08-07T10:00:50;99890.47;;;26.18;39.92
61682;BME280;47577;43.610;25.010;2023-08-07T10:03:19;99889.53;;;26.01;39.00
61682;BME280;47577;43.610;25.010;2023-08-07T10:05:45;99884.50;;;26.15;40.06
61682;BME280;47577;43.610;25.010;2023-08-07T10:08:11;99882.94;;;26.12;39.77
61682;BME280;47577;43.610;25.010;2023-08-07T10:10:38;99869.78;;;26.50;39.42
61682;BME280;47577;43.610;25.010;2023-08-07T10:13:04;99880.13;;;26.38;38.48
61682;BME280;47577;43.610;25.010;2023-08-07T10:15:31;99870.91;;;26.31;39.40
61682;BME280;47577;43.610;25.010;2023-08-07T10:17:57;99876.38;;;26.39;37.16
61682;BME280;47577;43.610;25.010;2023-08-07T10:20:26;99874.19;;;26.59;38.70
61682;BME280;47577;43.610;25.010;2023-08-07T10:22:53;99881.56;;;26.75;36.80
61682;BME280;47577;43.610;25.010;2023-08-07T10:25:21;99892.63;;;26.82;36.85
61682;BME280;47577;43.610;25.010;2023-08-07T10:27:49;99874.25;;;27.00;36.06
61682;BME280;47577;43.610;25.010;2023-08-07T10:30:18;99881.03;;;27.13;36.48
61682;BME280;47577;43.610;25.010;2023-08-07T10:32:46;99876.94;;;27.42;35.75
61682;BME280;47577;43.610;25.010;2023-08-07T10:35:33;99888.00;;;27.48;36.83
61682;BME280;47577;43.610;25.010;2023-08-07T10:38:07;99879.31;;;27.45;36.36
61682;BME280;47577;43.610;25.010;2023-08-07T10:43:23;99882.09;;;26.95;35.42
61682;BME280;47577;43.610;25.010;2023-08-07T10:45:50;99882.75;;;27.14;36.06
61682;BME280;47577;43.610;25.010;2023-08-07T10:48:19;99885.81;;;27.27;36.30
61682;BME280;47577;43.610;25.010;2023-08-07T10:50:58;99883.72;;;27.62;35.83
61682;BME280;47577;43.610;25.010;2023-08-07T10:53:33;99878.59;;;27.59;35.34
61682;BME280;47577;43.610;25.010;2023-08-07T10:56:04;99893.50;;;27.24;32.77
61682;BME280;47577;43.610;25.010;2023-08-07T10:58:32;99884.44;;;27.48;33.37
61682;BME280;47577;43.610;25.010;2023-08-07T11:01:39;99880.69;;;27.49;35.08
61682;BME280;47577;43.610;25.010;2023-08-07T11:04:07;99879.22;;;27.78;35.23
61682;BME280;47577;43.610;25.010;2023-08-07T11:06:35;99872.47;;;28.05;33.44
61682;BME280;47577;43.610;25.010;2023-08-07T11:09:03;99871.31;;;27.99;33.27
61682;BME280;47577;43.610;25.010;2023-08-07T11:11:40;99873.50;;;27.56;32.79
61682;BME280;47577;43.610;25.010;2023-08-07T11:14:07;99877.84;;;27.82;32.50
61682;BME280;47577;43.610;25.010;2023-08-07T11:16:34;99880.28;;;27.68;33.26
61682;BME280;47577;43.610;25.010;2023-08-07T11:19:01;99878.47;;;27.52;31.80
61682;BME280;47577;43.610;25.010;2023-08-07T11:21:27;99881.91;;;27.94;33.35
61682;BME280;47577;43.610;25.010;2023-08-07T11:23:52;99872.94;;;28.17;32.81
61682;BME280;47577;43.610;25.010;2023-08-07T11:26:18;99867.63;;;28.23;32.48
61682;BME280;47577;43.610;25.010;2023-08-07T11:28:47;99861.91;;;28.33;32.47
61682;BME280;47577;43.610;25.010;2023-08-07T11:31:13;99874.72;;;28.64;32.38
61682;BME280;47577;43.610;25.010;2023-08-07T11:33:40;99866.00;;;28.60;32.47
61682;BME280;47577;43.610;25.010;2023-08-07T11:36:13;99852.09;;;28.70;31.70
61682;BME280;47577;43.610;25.010;2023-08-07T11:38:43;99862.81;;;28.57;30.99
61682;BME280;47577;43.610;25.010;2023-08-07T11:41:11;99870.47;;;27.90;31.17
61682;BME280;47577;43.610;25.010;2023-08-07T11:43:38;99874.19;;;28.06;31.47
61682;BME280;47577;43.610;25.010;2023-08-07T11:46:10;99863.06;;;28.39;33.18
61682;BME280;47577;43.610;25.010;2023-08-07T11:48:37;99874.97;;;28.77;32.64
61682;BME280;47577;43.610;25.010;2023-08-07T11:51:04;99875.56;;;28.88;30.38
61682;BME280;47577;43.610;25.010;2023-08-07T11:53:32;99876.72;;;28.70;30.70
61682;BME280;47577;43.610;25.010;2023-08-07T11:56:04;99853.09;;;28.77;31.77
61682;BME280;47577;43.610;25.010;2023-08-07T11:58:41;99859.31;;;28.86;30.71
61682;BME280;47577;43.610;25.010;2023-08-07T12:01:10;99873.97;;;28.93;31.14
61682;BME280;47577;43.610;25.010;2023-08-07T12:03:37;99857.50;;;29.02;30.28
61682;BME280;47577;43.610;25.010;2023-08-07T12:06:07;99845.84;;;29.23;30.29
61682;BME280;47577;43.610;25.010;2023-08-07T12:08:37;99856.03;;;28.44;30.94
61682;BME280;47577;43.610;25.010;2023-08-07T12:11:05;99861.34;;;28.38;29.52
61682;BME280;47577;43.610;25.010;2023-08-07T12:13:31;99861.56;;;28.36;31.66
61682;BME280;47577;43.610;25.010;2023-08-07T12:15:58;99860.88;;;28.66;31.17
61682;BME280;47577;43.610;25.010;2023-08-07T12:18:26;99856.88;;;28.22;30.73
61682;BME280;47577;43.610;25.010;2023-08-07T12:20:57;99863.44;;;28.36;30.10
61682;BME280;47577;43.610;25.010;2023-08-07T12:23:22;99853.91;;;28.55;31.71
61682;BME280;47577;43.610;25.010;2023-08-07T12:25:48;99858.72;;;28.53;32.86
61682;BME280;47577;43.610;25.010;2023-08-07T12:28:15;99862.63;;;28.58;34.52
61682;BME280;47577;43.610;25.010;2023-08-07T12:30:44;99856.44;;;28.65;32.35
61682;BME280;47577;43.610;25.010;2023-08-07T12:33:11;99859.38;;;28.55;31.53
61682;BME280;47577;43.610;25.010;2023-08-07T12:35:36;99863.22;;;28.69;31.77
61682;BME280;47577;43.610;25.010;2023-08-07T12:38:02;99864.50;;;28.58;32.06
61682;BME280;47577;43.610;25.010;2023-08-07T12:40:31;99865.50;;;28.34;31.92
61682;BME280;47577;43.610;25.010;2023-08-07T12:42:58;99855.97;;;28.99;31.19
61682;BME280;47577;43.610;25.010;2023-08-07T12:45:24;99859.13;;;29.11;30.65
61682;BME280;47577;43.610;25.010;2023-08-07T12:47:53;99849.44;;;28.85;32.92
61682;BME280;47577;43.610;25.010;2023-08-07T12:50:19;99851.66;;;28.81;31.51
61682;BME280;47577;43.610;25.010;2023-08-07T12:52:44;99861.16;;;28.71;30.91
61682;BME280;47577;43.610;25.010;2023-08-07T12:55:10;99851.81;;;29.26;31.00
61682;BME280;47577;43.610;25.010;2023-08-07T12:57:37;99844.50;;;28.80;31.51
61682;BME280;47577;43.610;25.010;2023-08-07T13:00:03;99856.28;;;28.81;29.87
61682;BME280;47577;43.610;25.010;2023-08-07T13:02:29;99858.91;;;28.51;29.94